Elkins-Randolph Co-Jennings Randolph Field
KEKN : rendu visible

Aérodrome :











RETROUVEZ-NOUS SUR...

 
LOGIN :

S'inscrire | Disclaimer

   EN    FR    IT 

 









Légende :    VFR   VFR Marginal   IFR   IFR Intensif   IFR Très Intensif
Visi : 
Plafond : 
>= 8 km
>= 3000ft
5 à 8 km
1000 à 3000 ft
1500m à 5 km
500 à 1000 ft
800 à 1500m
200 à 500 ft
< 800m
< 200 ft
Symboles :   Orages  Brouillard  Fortes neiges  Fortes précipitations  Vent > 20 kt






- Altitude de l'aérodrome : 1987 ft


KEKN - Elkins-Randolph Co-Jennings Randolph Field

DERNIER METAR :
  • 041451Z AUTO 24003KT 10SM CLR 27/17 A3006 RMK AO2 SLP169 T02670167 58001

METARs EXPIRÉS :
  • 041351Z AUTO 25004KT 10SM CLR 24/17 A3006 RMK AO2 SLP169 T02440172
  • 041251Z AUTO 00000KT 10SM CLR 21/17 A3008 RMK AO2 SLP175 T02110172
  • 041151Z AUTO 00000KT 8SM CLR 18/16 A3007 RMK AO2 SLP170 T01830156 10183 20150 51008

TAF KEKN
Valide du 04 à 12h jusqu'au 05 à 12h UTC


041157Z 0412/0512 00000KT P6SM SKC
FM041600 33007KT P6SM SCT045
FM050900 00000KT P6SM SCT035
FM051100 00000KT P6SM SCT040
FIR KZDC / Amérique du Nord



MET'MAP, la Météo Aéronautique d'un coup d'oeil ! - Copyright ORBIFLY Décembre 2007 - Disclaimer

ORBIFLY MET'MAP TEAM :

Programmation & Développement : Alexandra Zaïnal
Sur une idée originale de : Baudouin d'Aumeries
Assistance à la programmation : Marc-Olivier Méhu
Soutien technique & logistique : Manuel Goepfert

Contact : metmap@orbifly.com




SOURCES & CREDITS :

   NOAA       Earth
Advisory